createdAt,value
2018-07-24T00:00:55.221Z,7.43
2018-07-24T00:03:23.437Z,7.03
2018-07-24T00:05:51.688Z,7.57
2018-07-24T00:08:19.949Z,7.23
2018-07-24T00:10:48.203Z,7.33
2018-07-24T00:13:16.392Z,7.37
2018-07-24T00:15:44.615Z,8.00
2018-07-24T00:18:12.897Z,7.57
2018-07-24T00:20:41.141Z,7.50
2018-07-24T00:23:09.377Z,7.50
2018-07-24T00:25:37.607Z,7.60
2018-07-24T00:28:05.833Z,7.20
2018-07-24T00:30:34.101Z,7.90
2018-07-24T00:33:02.350Z,7.47
2018-07-24T00:35:30.604Z,7.80
2018-07-24T00:37:58.817Z,7.17
2018-07-24T00:40:27.059Z,6.87
2018-07-24T00:42:55.280Z,7.77
2018-07-24T00:45:23.518Z,7.60
2018-07-24T00:47:51.755Z,6.53
2018-07-24T00:50:19.976Z,7.27
2018-07-24T00:52:48.296Z,7.53
2018-07-24T00:55:16.588Z,7.10
2018-07-24T00:57:44.857Z,8.10
2018-07-24T01:00:13.125Z,6.27
2018-07-24T01:02:41.709Z,6.80
2018-07-24T01:05:10.176Z,7.47
2018-07-24T01:07:39.016Z,6.93
2018-07-24T01:10:08.329Z,7.30
2018-07-24T01:12:36.559Z,7.40
2018-07-24T01:15:05.453Z,7.50
2018-07-24T01:17:33.686Z,8.20
2018-07-24T01:20:01.902Z,8.23
2018-07-24T01:22:30.357Z,7.33
2018-07-24T01:24:58.590Z,7.40
2018-07-24T01:27:26.832Z,7.03
2018-07-24T01:29:55.065Z,7.13
2018-07-24T01:32:23.317Z,7.27
2018-07-24T01:34:51.529Z,7.50
2018-07-24T01:37:19.863Z,7.50
2018-07-24T01:39:48.089Z,7.50
2018-07-24T01:42:16.347Z,7.20
2018-07-24T01:44:44.661Z,6.83
2018-07-24T01:47:12.909Z,7.80
2018-07-24T01:49:41.128Z,7.63
2018-07-24T01:52:09.352Z,7.67
2018-07-24T01:54:37.573Z,7.80
2018-07-24T01:57:05.829Z,8.30
2018-07-24T01:59:34.045Z,7.73
2018-07-24T02:02:02.261Z,8.17
2018-07-24T02:04:30.505Z,7.50
2018-07-24T02:06:58.709Z,8.20
2018-07-24T02:09:26.932Z,8.13
2018-07-24T02:11:55.133Z,7.23
2018-07-24T02:14:23.390Z,7.40
2018-07-24T02:16:51.628Z,8.20
2018-07-24T02:19:19.852Z,8.10
2018-07-24T02:21:48.096Z,7.20
2018-07-24T02:24:16.321Z,7.27
2018-07-24T02:26:44.540Z,7.50
2018-07-24T02:29:12.845Z,7.97
2018-07-24T02:31:41.067Z,7.27
2018-07-24T02:34:09.277Z,7.47
2018-07-24T02:36:37.526Z,7.40
2018-07-24T02:39:09.117Z,7.27
2018-07-24T02:41:37.353Z,7.87
2018-07-24T02:44:05.605Z,8.17
2018-07-24T02:46:33.841Z,7.73
2018-07-24T02:49:02.082Z,7.07
2018-07-24T02:51:30.493Z,6.93
2018-07-24T02:53:58.705Z,7.53
2018-07-24T02:56:27.293Z,7.87
2018-07-24T02:58:55.507Z,8.13
2018-07-24T03:01:23.788Z,7.97
2018-07-24T03:03:52.013Z,7.53
2018-07-24T03:06:20.291Z,8.20
2018-07-24T03:08:48.506Z,7.37
2018-07-24T03:11:16.754Z,7.73
2018-07-24T03:13:45.006Z,7.73
2018-07-24T03:16:13.275Z,7.63
2018-07-24T03:18:41.479Z,7.30
2018-07-24T03:21:09.693Z,7.90
2018-07-24T03:23:37.912Z,7.63
2018-07-24T03:26:06.221Z,7.67
2018-07-24T03:28:34.437Z,7.17
2018-07-24T03:31:02.677Z,7.20
2018-07-24T03:33:30.924Z,7.47
2018-07-24T03:35:59.473Z,7.87
2018-07-24T03:38:27.721Z,7.80
2018-07-24T03:40:55.983Z,7.07
2018-07-24T03:43:24.249Z,6.93
2018-07-24T03:45:52.456Z,7.23
2018-07-24T03:48:21.109Z,8.07
2018-07-24T03:50:49.312Z,7.83
2018-07-24T03:53:17.568Z,7.37
2018-07-24T03:55:45.778Z,7.13
2018-07-24T03:58:14.013Z,7.27
2018-07-24T04:00:42.638Z,6.70
2018-07-24T04:03:10.853Z,7.43
2018-07-24T04:05:39.105Z,7.53
2018-07-24T04:08:07.304Z,8.47
2018-07-24T04:10:35.529Z,7.10
2018-07-24T04:13:03.734Z,8.90
2018-07-24T04:15:31.983Z,8.30
2018-07-24T04:18:00.220Z,8.20
2018-07-24T04:20:28.456Z,8.53
2018-07-24T04:22:56.684Z,8.10
2018-07-24T04:25:24.893Z,7.70
2018-07-24T04:27:53.137Z,7.83
2018-07-24T04:30:21.359Z,7.30
2018-07-24T04:32:49.592Z,8.17
2018-07-24T04:35:17.808Z,8.67
2018-07-24T04:37:46.056Z,8.40
2018-07-24T04:40:14.328Z,9.10
2018-07-24T04:42:42.469Z,8.03
2018-07-24T04:45:10.724Z,8.30
2018-07-24T04:47:38.940Z,8.73
2018-07-24T04:50:07.213Z,8.30
2018-07-24T04:52:35.424Z,8.83
2018-07-24T04:55:03.706Z,8.90
2018-07-24T04:57:31.936Z,8.17
2018-07-24T05:00:00.161Z,8.83
2018-07-24T05:02:28.378Z,8.83
2018-07-24T05:04:56.625Z,9.60
2018-07-24T05:07:24.838Z,8.93
2018-07-24T05:09:53.066Z,7.10
2018-07-24T05:12:21.290Z,7.67
2018-07-24T05:14:49.504Z,8.37
2018-07-24T05:17:17.728Z,8.13
2018-07-24T05:19:45.960Z,8.77
2018-07-24T05:22:14.184Z,9.73
2018-07-24T05:24:42.467Z,9.97
2018-07-24T05:27:11.440Z,10.13
2018-07-24T05:29:40.927Z,10.10
2018-07-24T05:32:09.444Z,11.57
2018-07-24T05:34:37.776Z,10.60
2018-07-24T05:37:06.009Z,10.20
2018-07-24T05:39:34.277Z,11.13
2018-07-24T05:42:02.552Z,10.97
2018-07-24T05:44:30.752Z,12.03
2018-07-24T05:46:58.977Z,10.63
2018-07-24T05:49:27.204Z,10.73
2018-07-24T05:51:55.501Z,9.57
2018-07-24T05:54:23.791Z,11.97
2018-07-24T05:56:51.942Z,10.70
2018-07-24T05:59:20.188Z,11.17
2018-07-24T06:01:48.428Z,10.30
2018-07-24T06:04:16.636Z,11.50
2018-07-24T06:06:44.948Z,11.63
2018-07-24T06:09:13.188Z,11.53
2018-07-24T06:11:41.452Z,10.93
2018-07-24T06:14:09.704Z,10.27
2018-07-24T06:16:38.014Z,10.03
2018-07-24T06:19:06.188Z,10.60
2018-07-24T06:21:34.437Z,10.60
2018-07-24T06:24:02.657Z,10.93
2018-07-24T06:26:30.865Z,11.20
2018-07-24T06:28:59.080Z,10.70
2018-07-24T06:31:27.345Z,10.13
2018-07-24T06:33:55.546Z,10.00
2018-07-24T06:36:24.188Z,11.30
2018-07-24T06:38:52.408Z,10.97
2018-07-24T06:41:20.653Z,10.57
2018-07-24T06:43:48.881Z,9.23
2018-07-24T06:46:17.093Z,10.80
2018-07-24T06:48:45.329Z,9.97
2018-07-24T06:51:13.559Z,10.50
2018-07-24T06:53:41.784Z,10.27
2018-07-24T06:56:10.001Z,9.77
2018-07-24T06:58:38.248Z,10.00
2018-07-24T07:01:06.576Z,9.73
2018-07-24T07:03:34.829Z,9.83
2018-07-24T07:06:03.172Z,8.90
2018-07-24T07:08:31.424Z,7.90
2018-07-24T07:10:59.612Z,8.37
2018-07-24T07:13:27.887Z,7.77
2018-07-24T07:15:56.032Z,8.73
2018-07-24T07:18:24.332Z,8.10
2018-07-24T07:20:52.572Z,8.30
2018-07-24T07:23:20.816Z,8.23
2018-07-24T07:25:49.046Z,8.13
2018-07-24T07:28:17.265Z,7.93
2018-07-24T07:30:45.496Z,7.50
2018-07-24T07:33:13.732Z,7.47
2018-07-24T07:35:41.940Z,7.93
2018-07-24T07:38:10.168Z,8.30
2018-07-24T07:40:38.440Z,7.80
2018-07-24T07:43:06.724Z,7.30
2018-07-24T07:45:34.959Z,7.23
2018-07-24T07:48:03.169Z,7.20
2018-07-24T07:50:31.393Z,7.13
2018-07-24T07:52:59.736Z,7.13
2018-07-24T07:55:27.977Z,6.13
2018-07-24T07:57:56.525Z,5.87
2018-07-24T08:00:24.748Z,5.30
2018-07-24T08:02:53.508Z,5.83
2018-07-24T08:05:21.717Z,5.30
2018-07-24T08:07:49.944Z,5.53
2018-07-24T08:10:18.179Z,5.97
2018-07-24T08:12:46.441Z,6.07
2018-07-24T08:15:14.664Z,5.60
2018-07-24T08:17:42.865Z,5.73
2018-07-24T08:20:11.097Z,5.47
2018-07-24T08:22:39.353Z,5.73
2018-07-24T08:25:07.588Z,5.30
2018-07-24T08:27:35.812Z,5.30
2018-07-24T08:30:04.077Z,5.47
2018-07-24T08:32:32.280Z,5.30
2018-07-24T08:35:00.569Z,4.87
2018-07-24T08:37:28.821Z,4.30
2018-07-24T08:39:57.052Z,4.67
2018-07-24T08:42:25.278Z,4.83
2018-07-24T08:44:53.546Z,5.13
2018-07-24T08:47:21.754Z,4.63
2018-07-24T08:49:50.012Z,4.30
2018-07-24T08:52:18.276Z,4.73
2018-07-24T08:54:46.677Z,4.63
2018-07-24T08:57:14.788Z,4.30
2018-07-24T08:59:43.004Z,3.87
2018-07-24T09:02:11.275Z,4.13
2018-07-24T09:04:39.520Z,4.30
2018-07-24T09:07:08.084Z,4.27
2018-07-24T09:09:36.319Z,3.70
2018-07-24T09:12:04.553Z,4.47
2018-07-24T09:14:32.794Z,4.10
2018-07-24T09:17:01.023Z,4.37
2018-07-24T09:19:29.227Z,3.87
2018-07-24T09:21:57.460Z,3.70
2018-07-24T09:24:25.702Z,3.90
2018-07-24T09:26:53.949Z,4.10
2018-07-24T09:29:22.624Z,3.97
2018-07-24T09:31:50.866Z,3.80
2018-07-24T09:34:19.072Z,4.20
2018-07-24T09:36:47.334Z,3.63
2018-07-24T09:39:15.708Z,3.43
2018-07-24T09:41:43.912Z,3.77
2018-07-24T09:44:12.120Z,4.20
2018-07-24T09:46:40.308Z,4.00
2018-07-24T09:49:08.552Z,3.93
2018-07-24T09:51:36.774Z,3.93
2018-07-24T09:54:05.024Z,3.83
2018-07-24T09:56:33.332Z,4.00
2018-07-24T09:59:01.548Z,4.77
2018-07-24T10:01:31.602Z,5.13
2018-07-24T10:04:00.358Z,4.07
2018-07-24T10:06:28.592Z,3.80
2018-07-24T10:08:56.837Z,4.07
2018-07-24T10:11:31.650Z,3.50
2018-07-24T10:14:00.017Z,4.37
2018-07-24T10:16:28.301Z,4.43
2018-07-24T10:18:56.511Z,4.50
2018-07-24T10:21:24.684Z,5.03
2018-07-24T10:23:53.873Z,5.10
2018-07-24T10:26:22.096Z,3.90
2018-07-24T10:28:50.329Z,3.67
2018-07-24T10:31:18.569Z,4.40
2018-07-24T10:33:46.852Z,4.13
2018-07-24T10:36:15.073Z,3.77
2018-07-24T10:38:43.324Z,3.97
2018-07-24T10:41:11.610Z,3.83
2018-07-24T10:43:39.826Z,3.40
2018-07-24T10:46:08.072Z,3.73
2018-07-24T10:48:36.284Z,4.00
2018-07-24T10:51:04.617Z,3.37
2018-07-24T10:53:32.815Z,3.50
2018-07-24T10:56:01.033Z,3.90
2018-07-24T10:58:29.241Z,3.40
2018-07-24T11:00:57.520Z,3.93
2018-07-24T11:03:25.728Z,3.93
2018-07-24T11:05:54.053Z,3.60
2018-07-24T11:08:22.276Z,4.10
2018-07-24T11:10:50.556Z,3.90
2018-07-24T11:13:18.757Z,3.30
2018-07-24T11:15:46.988Z,3.50
2018-07-24T11:18:15.189Z,3.73
2018-07-24T11:20:43.408Z,3.43
2018-07-24T11:23:11.725Z,3.57
2018-07-24T11:25:39.876Z,3.60
2018-07-24T11:28:08.168Z,3.60
2018-07-24T11:30:36.388Z,3.20
2018-07-24T11:33:04.673Z,3.70
2018-07-24T11:35:32.895Z,3.63
2018-07-24T11:38:01.141Z,3.43
2018-07-24T11:40:29.403Z,3.60
2018-07-24T11:42:57.629Z,4.00
2018-07-24T11:45:25.872Z,3.43
2018-07-24T11:47:54.100Z,3.27
2018-07-24T11:50:22.344Z,3.20
2018-07-24T11:52:50.574Z,3.30
2018-07-24T11:55:18.808Z,4.00
2018-07-24T11:57:47.086Z,3.13
2018-07-24T12:00:15.264Z,3.43
2018-07-24T12:02:43.505Z,2.93
2018-07-24T12:05:11.713Z,3.20
2018-07-24T12:07:39.973Z,3.50
2018-07-24T12:10:08.217Z,3.30
2018-07-24T12:12:36.448Z,3.47
2018-07-24T12:15:05.720Z,3.10
2018-07-24T12:17:33.981Z,3.80
2018-07-24T12:20:02.196Z,3.83
2018-07-24T12:22:30.408Z,3.87
2018-07-24T12:24:58.720Z,3.63
2018-07-24T12:27:26.957Z,3.80
2018-07-24T12:29:55.214Z,3.20
2018-07-24T12:32:23.420Z,3.17
2018-07-24T12:34:51.636Z,3.47
2018-07-24T12:37:22.957Z,3.50
2018-07-24T12:39:51.160Z,3.87
2018-07-24T12:42:19.391Z,3.50
2018-07-24T12:44:47.597Z,3.57
2018-07-24T12:47:15.836Z,3.20
2018-07-24T12:49:44.049Z,3.70
2018-07-24T12:52:12.264Z,3.40
2018-07-24T12:54:40.528Z,3.00
2018-07-24T12:57:08.771Z,3.70
2018-07-24T12:59:36.996Z,3.50
2018-07-24T13:02:05.268Z,3.42
2018-07-24T13:04:33.468Z,3.00
2018-07-24T13:07:01.711Z,3.67
2018-07-24T13:09:29.920Z,3.20
2018-07-24T13:11:58.176Z,4.20
2018-07-24T13:14:26.377Z,3.70
2018-07-24T13:16:54.640Z,3.97
2018-07-24T13:19:22.856Z,3.30
2018-07-24T13:21:51.064Z,3.67
2018-07-24T13:24:19.312Z,3.50
2018-07-24T13:26:47.713Z,3.90
2018-07-24T13:29:15.949Z,3.93
2018-07-24T13:31:44.258Z,4.03
2018-07-24T13:34:12.425Z,3.90
2018-07-24T13:36:41.156Z,3.23
2018-07-24T13:39:10.721Z,4.30
2018-07-24T13:41:39.082Z,3.53
2018-07-24T13:44:07.677Z,3.83
2018-07-24T13:46:35.889Z,3.67
2018-07-24T13:49:04.184Z,3.83
2018-07-24T13:51:32.460Z,3.67
2018-07-24T13:54:00.668Z,4.20
2018-07-24T13:56:28.939Z,3.70
2018-07-24T13:58:57.199Z,3.90
2018-07-24T14:01:25.385Z,4.27
2018-07-24T14:03:53.616Z,3.97
2018-07-24T14:06:21.854Z,3.70
2018-07-24T14:08:50.064Z,3.37
2018-07-24T14:11:18.453Z,3.60
2018-07-24T14:13:46.669Z,3.10
2018-07-24T14:16:14.873Z,3.40
2018-07-24T14:18:43.120Z,3.87
2018-07-24T14:21:11.332Z,3.80
2018-07-24T14:23:39.552Z,4.10
2018-07-24T14:26:07.913Z,4.00
2018-07-24T14:28:36.193Z,3.57
2018-07-24T14:31:04.452Z,3.83
2018-07-24T14:33:32.690Z,4.37
2018-07-24T14:36:00.901Z,3.60
2018-07-24T14:38:29.125Z,4.07
2018-07-24T14:40:57.409Z,3.40
2018-07-24T14:43:25.688Z,3.77
2018-07-24T14:45:53.939Z,3.60
2018-07-24T14:48:22.308Z,3.70
2018-07-24T14:50:50.508Z,4.10
2018-07-24T14:53:18.812Z,3.17
2018-07-24T14:55:47.061Z,3.50
2018-07-24T14:58:15.281Z,3.33
2018-07-24T15:00:43.536Z,3.77
2018-07-24T15:03:11.769Z,3.87
2018-07-24T15:05:39.988Z,3.40
2018-07-24T15:08:08.209Z,3.57
2018-07-24T15:10:36.424Z,3.37
2018-07-24T15:13:04.642Z,3.67
2018-07-24T15:15:32.857Z,3.90
2018-07-24T15:18:01.100Z,5.90
2018-07-24T15:20:29.433Z,3.87
2018-07-24T15:22:57.652Z,3.87
2018-07-24T15:25:25.955Z,3.80
2018-07-24T15:27:54.252Z,4.03
2018-07-24T15:30:22.468Z,3.83
2018-07-24T15:32:50.673Z,3.67
2018-07-24T15:35:18.925Z,3.73
2018-07-24T15:37:47.125Z,4.10
2018-07-24T15:40:15.321Z,3.77
2018-07-24T15:42:43.548Z,3.73
2018-07-24T15:45:11.760Z,4.58
2018-07-24T15:47:40.052Z,3.85
2018-07-24T15:50:08.288Z,4.00
2018-07-24T15:52:36.551Z,4.30
2018-07-24T15:55:04.876Z,4.03
2018-07-24T15:57:33.111Z,4.15
2018-07-24T16:00:01.373Z,3.90
2018-07-24T16:02:29.801Z,4.12
2018-07-24T16:04:57.976Z,4.30
2018-07-24T16:07:26.181Z,3.77
2018-07-24T16:09:54.402Z,4.03
2018-07-24T16:12:22.640Z,4.10
2018-07-24T16:14:50.828Z,4.00
2018-07-24T16:17:19.041Z,4.30
2018-07-24T16:19:47.261Z,4.20
2018-07-24T16:22:15.612Z,4.20
2018-07-24T16:24:43.836Z,3.60
2018-07-24T16:27:12.081Z,3.95
2018-07-24T16:29:40.345Z,4.15
2018-07-24T16:32:08.588Z,3.60
2018-07-24T16:34:36.856Z,3.90
2018-07-24T16:37:05.189Z,4.78
2018-07-24T16:39:33.488Z,3.75
2018-07-24T16:42:01.705Z,4.33
2018-07-24T16:44:30.168Z,3.80
2018-07-24T16:46:58.416Z,3.45
2018-07-24T16:49:26.680Z,4.20
2018-07-24T16:51:54.916Z,3.65
2018-07-24T16:54:23.140Z,3.90
2018-07-24T16:56:51.339Z,4.17
2018-07-24T16:59:19.540Z,3.98
2018-07-24T17:01:47.768Z,4.40
2018-07-24T17:04:15.992Z,3.50
2018-07-24T17:06:44.212Z,3.75
2018-07-24T17:09:12.956Z,3.27
2018-07-24T17:11:41.464Z,3.60
2018-07-24T17:14:09.664Z,3.50
2018-07-24T17:16:37.917Z,3.90
2018-07-24T17:19:06.121Z,3.60
2018-07-24T17:21:34.332Z,3.85
2018-07-24T17:24:02.661Z,3.65
2018-07-24T17:26:31.443Z,3.87
2018-07-24T17:28:59.631Z,3.70
2018-07-24T17:31:27.824Z,4.37
2018-07-24T17:33:56.051Z,4.15
2018-07-24T17:36:24.272Z,3.58
2018-07-24T17:38:52.502Z,4.05
2018-07-24T17:41:20.707Z,5.27
2018-07-24T17:43:48.921Z,4.50
2018-07-24T17:46:17.166Z,4.55
2018-07-24T17:48:45.428Z,3.83
2018-07-24T17:51:13.676Z,4.58
2018-07-24T17:53:41.953Z,4.47
2018-07-24T17:56:10.116Z,4.28
2018-07-24T17:58:38.384Z,4.40
2018-07-24T18:01:06.668Z,4.87
2018-07-24T18:03:35.330Z,4.57
2018-07-24T18:06:03.599Z,4.00
2018-07-24T18:08:31.874Z,4.00
2018-07-24T18:11:00.125Z,4.10
2018-07-24T18:13:28.336Z,4.43
2018-07-24T18:15:56.583Z,4.40
2018-07-24T18:18:24.804Z,4.10
2018-07-24T18:20:53.025Z,3.63
2018-07-24T18:23:21.624Z,4.80
2018-07-24T18:25:49.844Z,4.90
2018-07-24T18:28:18.101Z,5.10
2018-07-24T18:30:46.408Z,5.23
2018-07-24T18:33:14.651Z,6.27
2018-07-24T18:35:42.841Z,6.20
2018-07-24T18:38:11.060Z,5.50
2018-07-24T18:40:39.292Z,8.67
2018-07-24T18:43:08.020Z,8.37
2018-07-24T18:45:36.272Z,6.80
2018-07-24T18:48:04.784Z,6.40
2018-07-24T18:50:33.046Z,5.07
2018-07-24T18:53:01.304Z,6.13
2018-07-24T18:55:29.540Z,6.50
2018-07-24T18:57:57.773Z,6.83
2018-07-24T19:00:26.033Z,4.90
2018-07-24T19:02:54.247Z,5.13
2018-07-24T19:05:22.512Z,5.33
2018-07-24T19:07:50.756Z,4.53
2018-07-24T19:10:18.980Z,5.00
2018-07-24T19:12:47.255Z,4.33
2018-07-24T19:15:15.536Z,5.00
2018-07-24T19:17:43.761Z,5.07
2018-07-24T19:20:11.985Z,4.57
2018-07-24T19:22:40.200Z,4.80
2018-07-24T19:25:08.412Z,5.10
2018-07-24T19:27:36.625Z,5.00
2018-07-24T19:30:05.421Z,4.90
2018-07-24T19:32:33.733Z,5.17
2018-07-24T19:35:01.956Z,5.03
2018-07-24T19:37:30.188Z,5.30
2018-07-24T19:39:58.408Z,5.60
2018-07-24T19:42:26.776Z,6.93
2018-07-24T19:44:55.001Z,6.83
2018-07-24T19:47:23.228Z,6.80
2018-07-24T19:49:51.566Z,7.73
2018-07-24T19:52:19.722Z,7.47
2018-07-24T19:54:47.964Z,7.17
2018-07-24T19:57:16.177Z,6.97
2018-07-24T19:59:44.408Z,6.40
2018-07-24T20:02:12.744Z,6.13
2018-07-24T20:04:40.979Z,6.80
2018-07-24T20:07:09.385Z,7.90
2018-07-24T20:09:37.613Z,10.27
2018-07-24T20:12:05.862Z,7.20
2018-07-24T20:14:34.140Z,6.50
2018-07-24T20:17:02.356Z,7.07
2018-07-24T20:19:30.573Z,6.40
2018-07-24T20:21:58.968Z,6.27
2018-07-24T20:24:27.196Z,5.60
2018-07-24T20:26:55.421Z,5.53
2018-07-24T20:29:23.652Z,5.50
2018-07-24T20:31:51.900Z,5.80
2018-07-24T20:34:20.149Z,6.37
2018-07-24T20:36:48.603Z,7.50
2018-07-24T20:39:16.824Z,6.30
2018-07-24T20:41:45.081Z,5.73
2018-07-24T20:44:13.257Z,5.60
2018-07-24T20:46:41.492Z,5.47
2018-07-24T20:49:09.726Z,5.47
2018-07-24T20:51:37.960Z,6.60
2018-07-24T20:54:06.192Z,5.87
2018-07-24T20:56:34.430Z,5.97
2018-07-24T20:59:02.648Z,5.93
2018-07-24T21:01:30.910Z,6.07
2018-07-24T21:03:59.116Z,5.20
2018-07-24T21:06:27.341Z,5.90
2018-07-24T21:08:55.564Z,5.70
2018-07-24T21:11:23.772Z,5.63
2018-07-24T21:13:52.028Z,5.33
2018-07-24T21:16:20.233Z,6.27
2018-07-24T21:18:48.689Z,5.83
2018-07-24T21:21:16.988Z,5.60
2018-07-24T21:23:45.184Z,6.13
2018-07-24T21:26:13.448Z,5.33
2018-07-24T21:28:41.652Z,5.33
2018-07-24T21:31:09.853Z,5.70
2018-07-24T21:33:38.060Z,5.90
2018-07-24T21:36:06.265Z,6.23
2018-07-24T21:38:34.503Z,5.87
2018-07-24T21:41:02.760Z,5.87
2018-07-24T21:43:31.000Z,6.00
2018-07-24T21:45:59.232Z,6.27
2018-07-24T21:48:27.452Z,6.07
2018-07-24T21:50:55.677Z,5.93
2018-07-24T21:53:23.937Z,5.57
2018-07-24T21:55:52.157Z,6.40
2018-07-24T21:58:20.433Z,5.57
2018-07-24T22:00:52.764Z,5.43
2018-07-24T22:03:20.972Z,5.97
2018-07-24T22:05:49.178Z,5.70
2018-07-24T22:08:17.381Z,5.37
2018-07-24T22:10:45.649Z,5.60
2018-07-24T22:13:13.864Z,5.87
2018-07-24T22:15:42.072Z,5.53
2018-07-24T22:18:10.342Z,5.80
2018-07-24T22:20:38.477Z,5.50
2018-07-24T22:23:06.720Z,5.13
2018-07-24T22:25:34.933Z,5.67
2018-07-24T22:28:03.132Z,6.27
2018-07-24T22:30:31.336Z,5.90
2018-07-24T22:32:59.668Z,5.97
2018-07-24T22:35:27.892Z,6.53
2018-07-24T22:37:56.564Z,5.80
2018-07-24T22:40:24.785Z,6.10
2018-07-24T22:42:53.253Z,5.57
2018-07-24T22:45:21.444Z,5.37
2018-07-24T22:47:49.652Z,5.90
2018-07-24T22:50:17.939Z,6.30
2018-07-24T22:52:46.213Z,6.20
2018-07-24T22:55:14.465Z,5.80
2018-07-24T22:57:42.664Z,6.00
2018-07-24T23:00:10.917Z,5.47
2018-07-24T23:02:39.162Z,6.50
2018-07-24T23:05:07.400Z,5.60
2018-07-24T23:07:35.612Z,5.60
2018-07-24T23:10:03.859Z,6.03
2018-07-24T23:12:32.067Z,5.63
2018-07-24T23:15:00.605Z,5.23
2018-07-24T23:17:28.877Z,6.20
2018-07-24T23:19:57.197Z,5.70
2018-07-24T23:22:25.406Z,5.60
2018-07-24T23:24:53.641Z,5.97
2018-07-24T23:27:21.848Z,6.10
2018-07-24T23:29:50.091Z,5.80
2018-07-24T23:32:18.321Z,6.10
2018-07-24T23:34:46.536Z,5.83
2018-07-24T23:37:14.732Z,5.63
2018-07-24T23:39:42.956Z,5.83
2018-07-24T23:42:11.168Z,5.87
2018-07-24T23:44:39.417Z,5.50
2018-07-24T23:47:07.640Z,5.37
2018-07-24T23:49:35.862Z,5.93
2018-07-24T23:52:04.080Z,6.77
2018-07-24T23:54:32.316Z,5.80
2018-07-24T23:57:00.504Z,6.00
2018-07-24T23:59:28.724Z,6.20
